Time;durP1;ratioP1;P1;durP2;ratioP2;P2;SDS_P1;SDS_P2;PMS_P1;PMS_P2;Temp;Humidity;BMP_temperature;BMP_pressure;BME280_temperature;BME280_humidity;BME280_pressure;Samples;Min_cycle;Max_cycle;Signal;HPM_P1;HPM_P2
2022/10/04 00:01:45;;;;;;;3.38;2.53;;;;;;;14.37;100.00;100087.09;5006381;28;20026;-78
2022/10/04 00:04:13;;;;;;;4.18;2.42;;;;;;;14.44;100.00;100088.16;5009558;28;20046;-78
2022/10/04 00:07:11;;;;;;;3.78;2.10;;;;;;;14.17;100.00;100087.25;5009797;28;20038;-79
2022/10/04 00:09:44;;;;;;;2.58;2.28;;;;;;;14.02;100.00;100088.75;5007117;28;20034;-80
2022/10/04 00:12:37;;;;;;;2.83;1.92;;;;;;;14.09;100.00;100091.66;5009466;28;20504;-80
2022/10/04 00:15:16;;;;;;;4.35;2.28;;;;;;;14.18;100.00;100088.94;5006294;28;20044;-80
2022/10/04 00:17:42;;;;;;;5.65;1.98;;;;;;;14.28;100.00;100083.53;5009790;28;20026;-81
2022/10/04 00:20:45;;;;;;;4.07;2.17;;;;;;;14.34;100.00;100101.50;5009659;28;20041;-79
2022/10/04 00:23:23;;;;;;;2.70;2.30;;;;;;;14.09;100.00;100092.50;5007298;28;20095;-79
2022/10/04 00:26:24;;;;;;;7.45;2.42;;;;;;;14.07;100.00;100097.13;5009806;28;20037;-78
2022/10/04 00:28:50;;;;;;;3.95;2.25;;;;;;;14.13;100.00;100093.88;4929832;29;20046;-76
2022/10/04 00:31:20;;;;;;;5.53;2.67;;;;;;;14.19;100.00;100085.31;4991222;28;20061;-77
2022/10/04 00:33:47;;;;;;;3.05;2.38;;;;;;;14.25;100.00;100095.31;5010052;28;20037;-76
2022/10/04 00:36:22;;;;;;;3.53;2.90;;;;;;;14.30;100.00;100102.81;5009140;28;20081;-76
2022/10/04 00:39:03;;;;;;;4.43;2.50;;;;;;;14.24;100.00;100103.41;5007684;28;20037;-76
2022/10/04 00:41:47;;;;;;;4.93;2.53;;;;;;;14.23;100.00;100102.56;5005637;28;20046;-75
2022/10/04 00:44:30;;;;;;;4.05;2.70;;;;;;;14.21;100.00;100104.53;5008391;28;20061;-77
2022/10/04 00:47:00;;;;;;;5.25;2.20;;;;;;;14.09;100.00;100105.75;5008724;28;20037;-77
2022/10/04 00:49:30;;;;;;;2.55;2.35;;;;;;;14.10;100.00;100101.28;5012977;28;20038;-78
2022/10/04 00:52:26;;;;;;;3.00;2.35;;;;;;;14.05;100.00;100107.06;5013259;28;20659;-77
2022/10/04 00:55:01;;;;;;;2.72;2.40;;;;;;;14.15;100.00;100104.31;5008490;28;20400;-75
2022/10/04 00:57:33;;;;;;;8.63;2.97;;;;;;;14.15;100.00;100104.31;5005109;28;20113;-80
2022/10/04 01:00:12;;;;;;;3.92;2.55;;;;;;;13.97;100.00;100106.13;5009018;28;20076;-79
2022/10/04 01:02:50;;;;;;;2.83;2.20;;;;;;;13.86;100.00;100107.19;5010461;28;20402;-78
2022/10/04 01:05:22;;;;;;;3.08;2.30;;;;;;;13.88;100.00;100102.56;5012621;28;20044;-78
2022/10/04 01:07:53;;;;;;;2.58;2.28;;;;;;;13.88;100.00;100102.56;5012521;28;20073;-78
2022/10/04 01:10:28;;;;;;;2.42;2.15;;;;;;;13.98;100.00;100102.50;5012617;28;20034;-77
2022/10/04 01:13:03;;;;;;;3.45;2.40;;;;;;;13.86;100.00;100105.38;5013188;28;20473;-77
2022/10/04 01:15:41;;;;;;;2.72;2.53;;;;;;;13.82;100.00;100103.19;4995026;28;20798;-76
2022/10/04 01:18:19;;;;;;;2.33;2.05;;;;;;;13.84;100.00;100101.22;5005849;28;20033;-75
2022/10/04 01:21:06;;;;;;;4.22;2.10;;;;;;;13.69;100.00;100100.03;5012204;28;20022;-77
2022/10/04 01:23:44;;;;;;;4.43;2.20;;;;;;;13.72;100.00;100100.59;5009211;28;20225;-77
2022/10/04 01:26:33;;;;;;;2.70;2.08;;;;;;;13.67;100.00;100097.53;5008251;28;20494;-77
2022/10/04 01:29:05;;;;;;;2.58;2.10;;;;;;;13.67;100.00;100096.69;5008473;28;20061;-77
2022/10/04 01:31:33;;;;;;;3.25;2.35;;;;;;;13.65;100.00;100096.03;5009046;28;20034;-75
2022/10/04 01:34:00;;;;;;;5.95;2.45;;;;;;;13.65;100.00;100096.03;5008136;28;20029;-76
2022/10/04 01:36:27;;;;;;;3.70;2.33;;;;;;;13.67;100.00;100100.19;5011997;28;20092;-77
2022/10/04 01:38:53;;;;;;;3.63;2.47;;;;;;;13.64;100.00;100100.50;5012136;28;20076;-77
2022/10/04 01:41:43;;;;;;;3.42;3.10;;;;;;;13.62;100.00;100107.75;5011735;28;20109;-76
2022/10/04 01:44:23;;;;;;;9.55;4.38;;;;;;;13.47;100.00;100103.94;4996483;28;20046;-76
2022/10/04 01:46:51;;;;;;;3.70;3.05;;;;;;;13.60;100.00;100108.91;5012473;28;20034;-79
2022/10/04 01:49:21;;;;;;;3.13;2.83;;;;;;;13.12;100.00;100109.97;4993731;28;20104;-79
2022/10/04 01:52:01;;;;;;;5.38;3.08;;;;;;;13.28;100.00;100120.78;5011910;28;20057;-78
2022/10/04 01:54:33;;;;;;;5.50;2.55;;;;;;;13.29;100.00;100117.16;5007654;28;20042;-75
2022/10/04 01:57:20;;;;;;;3.60;2.40;;;;;;;13.33;100.00;100118.53;5004303;28;20545;-76
2022/10/04 01:59:55;;;;;;;3.60;2.58;;;;;;;13.31;100.00;100114.38;5010507;28;20034;-77
2022/10/04 02:02:40;;;;;;;5.40;3.38;;;;;;;13.25;100.00;100115.78;5011268;28;20120;-75
2022/10/04 02:05:10;;;;;;;4.60;2.92;;;;;;;13.25;100.00;100101.69;5008129;28;20029;-76
2022/10/04 02:07:38;;;;;;;4.50;2.80;;;;;;;13.22;100.00;100105.47;5011227;28;20486;-76
2022/10/04 02:10:09;;;;;;;6.53;3.60;;;;;;;13.27;100.00;100107.66;5010510;28;20036;-75
2022/10/04 02:12:37;;;;;;;7.40;3.47;;;;;;;13.33;100.00;100107.91;5010956;28;20029;-74
2022/10/04 02:15:07;;;;;;;4.13;3.47;;;;;;;13.30;100.00;100104.75;5010796;28;20030;-78
2022/10/04 02:17:38;;;;;;;3.33;2.85;;;;;;;13.33;100.00;100101.78;5010937;28;20487;-79
2022/10/04 02:20:12;;;;;;;3.15;2.90;;;;;;;13.34;100.00;100104.28;5010677;28;20116;-79
2022/10/04 02:22:38;;;;;;;2.90;2.70;;;;;;;13.31;100.00;100104.56;5010936;28;20052;-80
2022/10/04 02:25:06;;;;;;;4.28;2.65;;;;;;;13.33;100.00;100102.63;5010426;28;20368;-79
2022/10/04 02:27:32;;;;;;;2.85;2.60;;;;;;;13.25;100.00;100104.34;5011192;28;20084;-78
2022/10/04 02:30:10;;;;;;;7.85;2.60;;;;;;;13.05;100.00;100098.25;5006465;28;20435;-75
2022/10/04 02:35:26;;;;;;;3.58;3.00;;;;;;;12.96;100.00;100101.78;5010581;28;20048;-77
2022/10/04 02:38:05;;;;;;;3.53;3.25;;;;;;;12.96;100.00;100104.44;5010762;28;20061;-77
2022/10/04 02:40:43;;;;;;;4.60;2.90;;;;;;;13.06;100.00;100105.22;5007357;28;20505;-74
2022/10/04 02:43:17;;;;;;;2.83;2.53;;;;;;;13.00;100.00;100109.28;5007928;28;20458;-76
2022/10/04 02:46:07;;;;;;;3.83;3.10;;;;;;;12.96;100.00;100104.44;5010722;28;20112;-77
2022/10/04 02:48:43;;;;;;;3.45;2.70;;;;;;;13.01;100.00;100102.19;5007363;28;20079;-75
2022/10/04 02:51:24;;;;;;;3.40;3.10;;;;;;;12.94;100.00;100106.38;5010158;28;20175;-77
2022/10/04 02:53:56;;;;;;;4.22;3.00;;;;;;;12.96;100.00;100099.13;5010053;28;20057;-77
2022/10/04 02:56:24;;;;;;;3.35;2.80;;;;;;;12.99;100.00;100098.84;5006495;28;20581;-78
2022/10/04 02:58:51;;;;;;;3.78;2.95;;;;;;;12.96;100.00;100104.44;5010339;28;20100;-78
2022/10/04 03:01:25;;;;;;;4.13;3.33;;;;;;;13.03;100.00;100102.84;5009335;28;20038;-74
2022/10/04 03:03:53;;;;;;;6.15;3.45;;;;;;;13.04;100.00;100102.72;5010466;28;20057;-77
2022/10/04 03:06:23;;;;;;;3.53;3.15;;;;;;;13.06;100.00;100103.41;5009895;28;20046;-79
2022/10/04 03:08:56;;;;;;;4.17;3.00;;;;;;;13.06;100.00;100105.22;5009691;28;20075;-74
2022/10/04 03:11:26;;;;;;;5.78;2.97;;;;;;;13.04;100.00;100109.81;5010142;28;20034;-76
2022/10/04 03:13:59;;;;;;;4.38;2.90;;;;;;;13.00;100.00;100111.09;5010251;28;20041;-76
2022/10/04 03:16:25;;;;;;;5.88;4.25;;;;;;;12.92;100.00;100113.63;5010149;28;20033;-76
2022/10/04 03:18:54;;;;;;;6.00;3.20;;;;;;;12.90;100.00;100116.41;5010211;28;20497;-77
2022/10/04 03:21:21;;;;;;;3.50;3.30;;;;;;;12.71;100.00;100111.19;5009694;28;20136;-75
2022/10/04 03:23:50;;;;;;;3.58;3.33;;;;;;;12.62;100.00;100120.81;5009889;28;20049;-75
2022/10/04 03:26:51;;;;;;;5.20;3.55;;;;;;;12.50;100.00;100116.63;5009620;28;20034;-77
2022/10/04 03:29:18;;;;;;;3.90;3.35;;;;;;;12.56;100.00;100124.03;4964345;28;20046;-77
2022/10/04 03:31:46;;;;;;;3.72;3.40;;;;;;;12.57;100.00;100127.50;5010089;28;20026;-76
2022/10/04 03:34:15;;;;;;;4.72;3.17;;;;;;;12.60;100.00;100121.94;5009593;28;20136;-76
2022/10/04 03:36:43;;;;;;;4.57;3.63;;;;;;;12.61;100.00;100129.72;5009567;28;20030;-77
2022/10/04 03:39:10;;;;;;;7.20;3.67;;;;;;;12.65;100.00;100128.47;5009510;28;20045;-78
2022/10/04 03:41:40;;;;;;;3.65;3.28;;;;;;;12.67;100.00;100125.66;5009597;28;20042;-78
2022/10/04 03:44:14;;;;;;;7.00;3.90;;;;;;;12.67;100.00;100126.50;5009594;28;20096;-78
2022/10/04 03:46:41;;;;;;;9.70;3.80;;;;;;;12.73;100.00;100139.19;5009816;28;20018;-75
2022/10/04 03:49:07;;;;;;;4.20;3.50;;;;;;;12.74;100.00;100132.06;5009683;28;20042;-76
2022/10/04 03:51:33;;;;;;;7.78;4.00;;;;;;;12.80;100.00;100135.97;5008728;28;20033;-75
2022/10/04 03:54:01;;;;;;;7.38;4.45;;;;;;;12.76;100.00;100145.19;5008367;28;20404;-75
2022/10/04 03:56:30;;;;;;;4.55;4.22;;;;;;;12.76;100.00;100139.88;5009375;28;20034;-76
2022/10/04 03:58:57;;;;;;;7.00;4.45;;;;;;;12.76;100.00;100134.59;5009676;28;20026;-77
2022/10/04 04:01:39;;;;;;;5.43;4.53;;;;;;;12.69;100.00;100145.75;5009750;28;20065;-77
2022/10/04 04:04:23;;;;;;;4.50;4.03;;;;;;;12.78;100.00;100143.22;5006672;28;20076;-77
2022/10/04 04:06:49;;;;;;;7.22;4.00;;;;;;;12.81;100.00;100148.22;5009631;28;20034;-76
2022/10/04 04:09:26;;;;;;;4.25;3.95;;;;;;;12.76;100.00;100150.47;5008901;28;20026;-76
2022/10/04 04:11:55;;;;;;;4.60;4.30;;;;;;;12.72;100.00;100152.59;4992647;28;20034;-75
2022/10/04 04:14:25;;;;;;;8.52;4.20;;;;;;;12.73;100.00;100146.28;5011661;28;20064;-76
2022/10/04 04:16:53;;;;;;;6.35;4.10;;;;;;;12.72;100.00;100155.22;5013614;28;20061;-76
2022/10/04 04:19:23;;;;;;;4.18;3.78;;;;;;;12.76;100.00;100161.06;5013280;28;20038;-76
2022/10/04 04:21:53;;;;;;;4.72;4.32;;;;;;;12.79;100.00;100166.91;5013617;28;20029;-75
2022/10/04 04:24:24;;;;;;;4.22;3.75;;;;;;;12.78;100.00;100161.78;5012372;28;20132;-76
2022/10/04 04:26:56;;;;;;;5.75;4.43;;;;;;;12.77;100.00;100155.63;4995355;28;20480;-76
2022/10/04 04:29:27;;;;;;;4.45;4.05;;;;;;;12.75;100.00;100160.22;5013116;28;20069;-76
2022/10/04 04:32:15;;;;;;;4.53;3.67;;;;;;;12.70;100.00;100160.66;5013134;28;20080;-75
2022/10/04 04:34:59;;;;;;;5.15;4.00;;;;;;;12.73;100.00;100163.00;5011029;28;20034;-76
2022/10/04 04:37:25;;;;;;;4.75;4.30;;;;;;;12.72;100.00;100160.53;5012565;28;20069;-77
2022/10/04 04:39:54;;;;;;;6.18;4.20;;;;;;;12.60;100.00;100162.50;5012178;28;20029;-76
2022/10/04 04:42:34;;;;;;;5.70;3.80;;;;;;;12.49;100.00;100167.91;5012259;28;20046;-75
2022/10/04 04:45:15;;;;;;;6.43;4.10;;;;;;;12.53;100.00;100164.03;5008688;28;20030;-74
2022/10/04 04:47:45;;;;;;;;;;;;;;;12.59;100.00;100166.13;5010768;28;20034;-77
2022/10/04 04:50:44;;;;;;;5.95;4.20;;;;;;;12.50;100.00;100166.94;5012914;28;19917;-77
2022/10/04 04:53:29;;;;;;;5.35;4.50;;;;;;;12.63;100.00;100172.78;4994091;28;20372;-76
2022/10/04 04:55:58;;;;;;;5.00;4.60;;;;;;;12.60;100.00;100173.09;5012009;28;20045;-82
2022/10/04 04:58:28;;;;;;;5.45;4.93;;;;;;;12.53;100.00;100182.56;5012161;28;20030;-78
2022/10/04 05:00:58;;;;;;;5.17;4.50;;;;;;;12.41;100.00;100182.84;5008595;28;20037;-78
2022/10/04 05:03:24;;;;;;;4.95;4.43;;;;;;;12.42;100.00;100180.06;5012433;28;20287;-79
2022/10/04 05:05:51;;;;;;;7.75;5.80;;;;;;;12.40;100.00;100187.28;5012207;28;20032;-79
2022/10/04 05:08:27;;;;;;;4.90;4.45;;;;;;;12.31;100.00;100193.44;5012156;28;20482;-78
2022/10/04 05:11:05;;;;;;;5.82;4.60;;;;;;;12.31;100.00;100194.22;5012307;28;20042;-75
2022/10/04 05:13:53;;;;;;;7.85;4.82;;;;;;;12.30;100.00;100197.88;5008560;28;20510;-74
2022/10/04 05:16:22;;;;;;;5.40;4.63;;;;;;;12.29;100.00;100200.66;5009901;28;20510;-76
2022/10/04 05:18:56;;;;;;;9.57;4.65;;;;;;;12.03;100.00;100200.31;5012502;28;20391;-76
2022/10/04 05:21:28;;;;;;;6.82;4.60;;;;;;;11.97;100.00;100205.31;5011855;28;20038;-72
2022/10/04 05:24:07;;;;;;;7.30;5.45;;;;;;;11.92;100.00;100207.53;5011263;28;20021;-74
2022/10/04 05:26:32;;;;;;;6.90;6.18;;;;;;;11.98;100.00;100212.28;5004075;28;20143;-73
2022/10/04 05:29:08;;;;;;;8.63;5.40;;;;;;;11.95;100.00;100209.94;5010560;28;20044;-72
2022/10/04 05:31:56;;;;;;;6.75;5.57;;;;;;;11.95;100.00;100212.56;5008291;28;20171;-73
2022/10/04 05:34:25;;;;;;;9.00;4.97;;;;;;;11.97;100.00;100216.75;5010858;28;20513;-74
2022/10/04 05:36:51;;;;;;;6.35;4.82;;;;;;;12.02;100.00;100209.22;5011029;28;20042;-72
2022/10/04 05:39:52;;;;;;;5.07;4.22;;;;;;;12.13;100.00;100216.25;5008526;28;20044;-72
2022/10/04 05:42:32;;;;;;;6.63;4.80;;;;;;;12.09;100.00;100225.41;4965986;28;20057;-73
2022/10/04 05:45:00;;;;;;;8.00;5.15;;;;;;;12.10;100.00;100219.13;5008563;28;20044;-73
2022/10/04 05:47:29;;;;;;;5.75;4.97;;;;;;;12.17;100.00;100225.56;5010480;28;20550;-72
2022/10/04 05:49:57;;;;;;;5.63;5.13;;;;;;;12.19;100.00;100231.56;5010014;28;20033;-72
2022/10/04 05:52:34;;;;;;;7.45;5.22;;;;;;;12.17;100.00;100238.78;5010672;28;20045;-72
2022/10/04 05:55:31;;;;;;;7.65;5.75;;;;;;;12.15;100.00;100238.09;5007775;28;20068;-73
2022/10/04 05:58:17;;;;;;;5.25;4.75;;;;;;;12.09;100.00;100233.34;5009273;28;20030;-73
2022/10/04 06:00:58;;;;;;;10.95;6.35;;;;;;;12.13;100.00;100237.41;5009034;28;20088;-74
2022/10/04 06:03:43;;;;;;;5.20;4.55;;;;;;;12.19;100.00;100247.44;5011110;28;20026;-73
2022/10/04 06:06:21;;;;;;;7.05;5.18;;;;;;;12.21;100.00;100258.72;5008182;28;20826;-74
2022/10/04 06:09:14;;;;;;;5.93;4.93;;;;;;;12.22;100.00;100250.63;5010754;28;20036;-74
2022/10/04 06:12:02;;;;;;;5.68;5.05;;;;;;;12.27;100.00;100256.34;5007511;28;20030;-74
2022/10/04 06:15:02;;;;;;;5.65;4.80;;;;;;;12.36;100.00;100246.78;4970535;28;20506;-75
2022/10/04 06:17:39;;;;;;;5.45;4.93;;;;;;;12.36;100.00;100254.72;5006855;28;20407;-74
2022/10/04 06:20:37;;;;;;;8.15;5.25;;;;;;;12.33;100.00;100252.31;5007458;28;20037;-74
2022/10/04 06:23:11;;;;;;;7.20;5.40;;;;;;;12.37;100.00;100251.06;4955010;28;20516;-75
2022/10/04 06:25:46;;;;;;;5.95;5.30;;;;;;;12.48;100.00;100253.63;5011034;28;20053;-74
2022/10/04 06:28:31;;;;;;;5.70;5.10;;;;;;;12.50;100.00;100262.22;5009857;28;20038;-75
2022/10/04 06:31:06;;;;;;;8.75;4.93;;;;;;;12.43;100.00;100255.81;5010090;28;20030;-73
2022/10/04 06:33:53;;;;;;;9.02;5.07;;;;;;;12.46;100.00;100267.94;5006893;28;20117;-73
2022/10/04 06:36:44;;;;;;;5.05;4.55;;;;;;;12.48;100.00;100269.50;5008054;28;20487;-73
2022/10/04 06:39:22;;;;;;;10.23;4.80;;;;;;;12.36;100.00;100275.88;5000798;28;20045;-74
2022/10/04 06:42:10;;;;;;;9.40;5.00;;;;;;;12.36;100.00;100283.81;5009854;28;20056;-72
2022/10/04 06:45:10;;;;;;;8.15;5.68;;;;;;;12.47;100.00;100282.88;5007385;28;20048;-76
2022/10/04 06:47:54;;;;;;;8.45;5.15;;;;;;;12.60;100.00;100289.56;5007263;28;20026;-75
2022/10/04 06:50:41;;;;;;;9.43;5.25;;;;;;;12.65;100.00;100287.34;5010048;28;20038;-76
2022/10/04 06:53:17;;;;;;;8.68;5.32;;;;;;;12.69;100.00;100288.72;5007268;28;20156;-75
2022/10/04 06:56:14;;;;;;;6.75;5.97;;;;;;;12.75;100.00;100289.16;5010190;28;20025;-75
2022/10/04 06:59:12;;;;;;;6.05;5.45;;;;;;;12.73;100.00;100290.13;5009394;28;20080;-75
2022/10/04 07:01:49;;;;;;;6.38;5.78;;;;;;;12.86;100.00;100299.59;5007355;28;20049;-74
2022/10/04 07:04:32;;;;;;;6.60;5.43;;;;;;;13.00;100.00;100302.69;5009803;28;20048;-75
2022/10/04 07:07:35;;;;;;;9.98;6.45;;;;;;;13.03;100.00;100301.56;5006259;28;20657;-75
2022/10/04 07:10:38;;;;;;;7.57;6.88;;;;;;;13.08;100.00;100309.91;4996865;28;20049;-74
2022/10/04 07:13:04;;;;;;;7.90;7.15;;;;;;;13.16;100.00;100307.44;5006127;28;20179;-74
2022/10/04 07:15:44;;;;;;;9.90;6.63;;;;;;;13.21;100.00;100304.34;5009658;28;20435;-74
2022/10/04 07:18:15;;;;;;;10.73;7.05;;;;;;;13.27;100.00;100309.94;5007023;28;20061;-74
2022/10/04 07:20:41;;;;;;;11.88;6.13;;;;;;;13.35;100.00;100312.72;5009990;28;20041;-74
2022/10/04 07:23:21;;;;;;;7.68;6.55;;;;;;;13.40;100.00;100315.78;5009483;28;20399;-74
2022/10/04 07:25:53;;;;;;;12.30;5.93;;;;;;;13.35;100.00;100323.31;5010075;28;20038;-74
2022/10/04 07:31:27;;;;;;;9.10;6.75;;;;;;;13.36;100.00;100321.53;5007313;28;20038;-74
2022/10/04 07:34:02;;;;;;;14.85;7.07;;;;;;;13.35;100.00;100322.50;5009572;28;20054;-73
2022/10/04 07:36:42;;;;;;;12.70;7.20;;;;;;;13.32;100.00;100326.25;5005478;28;20033;-73
2022/10/04 07:39:17;;;;;;;12.57;6.78;;;;;;;13.24;100.00;100326.13;5006823;28;20423;-75
2022/10/04 07:41:51;;;;;;;7.82;6.65;;;;;;;13.31;100.00;100327.22;5007723;28;20053;-73
2022/10/04 07:44:34;;;;;;;10.25;7.15;;;;;;;13.39;100.00;100334.47;5009234;28;20041;-73
2022/10/04 07:47:19;;;;;;;12.73;8.02;;;;;;;13.36;100.00;100325.00;5009698;28;20053;-74
2022/10/04 07:49:49;;;;;;;16.45;8.27;;;;;;;13.51;100.00;100334.19;5010807;28;20482;-74
2022/10/04 07:52:26;;;;;;;16.63;9.48;;;;;;;13.63;100.00;100341.97;5012995;28;20499;-74
2022/10/04 07:54:55;;;;;;;13.30;9.30;;;;;;;13.73;100.00;100333.00;5013156;28;20044;-73
2022/10/04 07:57:23;;;;;;;22.00;10.57;;;;;;;13.75;100.00;100336.34;5011935;28;20037;-74
2022/10/04 08:00:01;;;;;;;18.65;11.85;;;;;;;13.82;100.00;100336.63;4995728;28;20380;-74
2022/10/04 08:02:53;;;;;;;14.02;10.80;;;;;;;13.85;100.00;100336.31;5012869;28;20061;-74
2022/10/04 08:05:28;;;;;;;16.33;11.68;;;;;;;13.86;100.00;100343.28;5011236;28;20044;-74
2022/10/04 08:08:21;;;;;;;18.75;12.18;;;;;;;13.88;100.00;100346.66;5009178;28;20042;-73
2022/10/04 08:11:20;;;;;;;20.02;12.23;;;;;;;13.93;100.00;100355.84;5010998;28;20104;-74
2022/10/04 08:14:00;;;;;;;21.67;12.57;;;;;;;14.04;100.00;100359.28;5011995;28;20482;-74
2022/10/04 08:17:01;;;;;;;19.73;11.85;;;;;;;14.11;100.00;100355.94;5012033;28;20030;-75
2022/10/04 08:19:35;;;;;;;16.83;11.95;;;;;;;14.18;100.00;100362.31;5011939;28;20041;-75
2022/10/04 08:22:26;;;;;;;22.75;12.77;;;;;;;14.26;100.00;100362.41;5010380;28;20038;-74
2022/10/04 08:25:18;;;;;;;23.35;13.13;;;;;;;14.33;100.00;100358.19;5012213;28;20048;-72
2022/10/04 08:31:15;;;;;;;30.85;17.50;;;;;;;14.40;100.00;100365.59;5015870;28;20040;-76
2022/10/04 08:34:08;;;;;;;36.25;18.63;;;;;;;14.49;100.00;100362.06;5014915;28;20065;-73
2022/10/04 08:36:58;;;;;;;45.78;20.58;;;;;;;14.55;100.00;100372.09;5016877;28;20034;-72
2022/10/04 08:39:23;;;;;;;51.58;23.80;;;;;;;14.52;100.00;100367.06;5013264;28;20030;-74
2022/10/04 08:42:40;;;;;;;54.63;24.40;;;;;;;14.56;100.00;100374.59;5012030;28;20049;-74
2022/10/04 08:45:19;;;;;;;48.13;23.00;;;;;;;14.58;100.00;100380.59;5009997;28;20038;-72
2022/10/04 08:48:07;;;;;;;49.35;24.85;;;;;;;14.62;100.00;100383.78;5010454;28;20069;-73
2022/10/04 08:51:01;;;;;;;63.45;29.10;;;;;;;14.60;100.00;100375.16;5011410;28;20447;-77
2022/10/04 08:53:51;;;;;;;62.70;28.45;;;;;;;14.56;100.00;100389.69;5010921;28;20046;-72
2022/10/04 08:56:35;;;;;;;54.35;28.77;;;;;;;14.54;100.00;100386.38;4993633;28;20451;-74
2022/10/04 08:59:36;;;;;;;61.13;28.33;;;;;;;14.64;100.00;100382.66;5010282;28;20049;-73
2022/10/04 09:02:38;;;;;;;64.10;31.10;;;;;;;14.65;100.00;100383.50;5009002;28;20037;-75
2022/10/04 09:05:22;;;;;;;66.00;34.50;;;;;;;14.70;100.00;100381.22;5010854;28;20108;-72
2022/10/04 09:07:50;;;;;;;73.93;35.40;;;;;;;14.78;100.00;100378.69;5009727;28;20042;-72
2022/10/04 09:10:46;;;;;;;80.30;40.50;;;;;;;14.75;100.00;100379.81;5010927;28;20360;-73
2022/10/04 09:13:33;;;;;;;85.65;42.33;;;;;;;14.83;100.00;100391.50;5010936;28;20164;-73
2022/10/04 09:16:40;;;;;;;89.55;41.72;;;;;;;14.81;100.00;100393.47;5008498;28;20069;-76
2022/10/04 09:19:27;;;;;;;81.53;43.20;;;;;;;14.88;100.00;100395.38;4994900;28;20054;-72
2022/10/04 09:21:56;;;;;;;81.38;42.28;;;;;;;15.02;100.00;100392.19;5010268;28;20107;-73
2022/10/04 09:24:33;;;;;;;88.47;41.40;;;;;;;14.98;100.00;100388.19;5009588;28;20092;-73
2022/10/04 09:27:27;;;;;;;77.65;40.78;;;;;;;15.10;100.00;100389.63;5010593;28;20038;-74
2022/10/04 09:30:02;;;;;;;92.90;44.85;;;;;;;15.22;100.00;100389.41;5011036;28;20029;-74
2022/10/04 09:32:47;;;;;;;88.72;45.13;;;;;;;15.31;100.00;100376.03;5010185;28;20061;-74
2022/10/04 09:35:42;;;;;;;88.20;44.70;;;;;;;15.33;100.00;100381.19;5011305;28;20383;-74
2022/10/04 09:38:43;;;;;;;89.53;44.90;;;;;;;15.45;100.00;100377.28;4660636;28;10001024;-74
2022/10/04 09:41:27;;;;;;;90.05;45.92;;;;;;;15.57;100.00;100381.41;4930943;29;20118;-73
2022/10/04 09:44:30;;;;;;;88.43;47.42;;;;;;;15.59;100.00;100384.78;5002414;28;20046;-74
2022/10/04 09:47:30;;;;;;;80.68;46.17;;;;;;;15.66;100.00;100391.16;4663868;28;10001050;-74
2022/10/04 09:50:16;;;;;;;93.72;48.58;;;;;;;15.68;100.00;100388.31;5011136;28;20080;-73
2022/10/04 09:52:54;;;;;;;90.75;50.00;;;;;;;15.74;100.00;100388.53;5009460;28;20030;-72
2022/10/04 09:55:45;;;;;;;90.07;50.22;;;;;;;15.80;100.00;100387.91;5011517;28;20045;-73
2022/10/04 09:58:47;;;;;;;95.72;51.55;;;;;;;15.94;100.00;100383.84;5009639;28;20169;-74
2022/10/04 10:01:39;;;;;;;90.30;50.53;;;;;;;16.05;100.00;100385.41;5005710;28;20046;-74
2022/10/04 10:04:29;;;;;;;94.72;49.65;;;;;;;16.21;100.00;100401.47;5009547;28;20575;-76
2022/10/04 10:07:13;;;;;;;85.50;48.28;;;;;;;16.31;100.00;100396.88;5009768;28;20137;-76
2022/10/04 10:16:03;;;;;;;81.95;47.88;;;;;;;16.75;100.00;100401.06;5009613;28;20038;-73
2022/10/04 10:18:46;;;;;;;82.95;47.25;;;;;;;16.67;100.00;100397.56;5008071;28;20112;-75
2022/10/04 10:21:33;;;;;;;78.90;46.15;;;;;;;16.86;100.00;100396.41;5009688;28;20574;-75
2022/10/04 10:24:34;;;;;;;85.38;46.97;;;;;;;16.94;100.00;100399.97;5008462;28;20042;-73
2022/10/04 10:27:23;;;;;;;78.32;42.88;;;;;;;17.10;100.00;100402.66;5007604;28;20048;-74
2022/10/04 10:30:08;;;;;;;75.05;44.45;;;;;;;17.23;100.00;100398.66;5009378;28;20057;-74
2022/10/04 10:33:04;;;;;;;73.13;42.08;;;;;;;17.36;100.00;100391.84;5010049;28;20037;-73
2022/10/04 10:36:03;;;;;;;72.22;41.92;;;;;;;17.51;100.00;100392.00;5005874;28;20421;-73
2022/10/04 10:38:39;;;;;;;77.28;45.25;;;;;;;17.61;100.00;100402.56;4992797;28;20037;-74
2022/10/04 10:41:25;;;;;;;71.45;42.40;;;;;;;17.64;100.00;100396.88;5009249;28;20077;-74
2022/10/04 10:44:50;;;;;;;75.75;44.75;;;;;;;17.67;100.00;100394.69;5009038;28;20045;-75
2022/10/04 10:47:25;;;;;;;75.57;42.40;;;;;;;17.70;100.00;100393.53;4928903;28;20392;-75
2022/10/04 10:50:15;;;;;;;75.40;41.70;;;;;;;17.75;100.00;100393.88;5010955;28;20048;-75
2022/10/04 10:53:19;;;;;;;70.18;41.63;;;;;;;17.83;100.00;100396.53;5007823;28;20034;-75
2022/10/04 10:56:10;;;;;;;70.85;42.78;;;;;;;17.84;100.00;100388.38;5008373;28;20030;-75
2022/10/04 10:58:57;;;;;;;76.45;42.50;;;;;;;17.90;100.00;100387.69;5007473;28;20398;-75
2022/10/04 11:01:54;;;;;;;70.85;41.20;;;;;;;17.93;100.00;100391.84;5010034;28;20037;-73
2022/10/04 11:04:55;;;;;;;72.68;42.35;;;;;;;17.98;100.00;100394.81;5008918;28;20167;-75
2022/10/04 11:07:36;;;;;;;68.72;43.03;;;;;;;18.04;100.00;100386.13;5006316;28;20042;-73
2022/10/04 11:10:20;;;;;;;70.03;41.25;;;;;;;18.08;100.00;100384.81;5006488;28;20034;-75
2022/10/04 11:13:00;;;;;;;73.55;42.42;;;;;;;18.15;100.00;100385.78;5007953;28;20042;-76
2022/10/04 11:15:48;;;;;;;67.50;41.30;;;;;;;18.20;100.00;100383.41;5009973;28;20064;-75
2022/10/04 11:18:25;;;;;;;75.05;41.10;;;;;;;18.24;100.00;100379.41;5007723;28;20022;-75
2022/10/04 11:21:12;;;;;;;73.28;39.92;;;;;;;18.33;100.00;100378.38;5009479;28;20116;-74
2022/10/04 11:24:05;;;;;;;68.10;40.63;;;;;;;18.41;100.00;100375.69;5006152;28;20534;-75
2022/10/04 11:26:55;;;;;;;68.22;39.78;;;;;;;18.53;100.00;100372.63;4988113;28;20046;-75
2022/10/04 11:29:30;;;;;;;65.15;40.00;;;;;;;18.61;100.00;100369.94;5008379;28;20541;-74
2022/10/04 11:32:20;;;;;;;66.05;38.25;;;;;;;18.71;100.00;100370.56;5009165;28;20462;-75
2022/10/04 11:34:45;;;;;;;64.15;39.53;;;;;;;18.85;100.00;100371.66;5008342;28;20042;-76
2022/10/04 11:37:42;;;;;;;69.75;39.15;;;;;;;18.92;100.00;100362.72;5008915;28;20034;-74
2022/10/04 11:40:34;;;;;;;62.08;38.60;;;;;;;18.95;100.00;100365.06;5006642;28;20041;-76
2022/10/04 11:42:59;;;;;;;64.53;38.17;;;;;;;19.08;100.00;100368.00;5008872;28;20054;-75
2022/10/04 11:46:00;;;;;;;61.83;37.88;;;;;;;19.15;100.00;100358.22;5008871;28;20056;-74
2022/10/04 11:48:56;;;;;;;58.58;36.10;;;;;;;19.33;100.00;100365.09;5008353;28;20053;-76
2022/10/04 11:51:59;;;;;;;61.33;39.08;;;;;;;19.44;100.00;100360.16;5008586;28;20037;-75
2022/10/04 11:54:44;;;;;;;63.65;39.00;;;;;;;19.55;100.00;100358.94;5007763;28;20038;-74
2022/10/04 11:57:19;;;;;;;56.03;35.67;;;;;;;19.62;100.00;100355.34;4988400;28;20519;-74
2022/10/04 12:00:00;;;;;;;58.80;34.47;;;;;;;19.69;100.00;100344.75;5009480;28;20022;-73
2022/10/04 12:02:40;;;;;;;57.17;35.75;;;;;;;19.80;100.00;100352.31;5008901;28;20072;-74
2022/10/04 12:05:22;;;;;;;57.13;34.67;;;;;;;19.94;100.00;100346.16;5007554;28;20041;-73
2022/10/04 12:08:02;;;;;;;57.35;34.60;;;;;;;20.00;100.00;100348.13;5008956;28;20065;-73
2022/10/04 12:10:35;;;;;;;56.00;33.22;;;;;;;20.12;100.00;100344.97;5008825;28;20072;-75
2022/10/04 12:13:33;;;;;;;49.83;31.67;;;;;;;20.26;100.00;100341.47;5006318;28;20153;-74
2022/10/04 12:16:04;;;;;;;56.53;33.22;;;;;;;20.40;100.00;100340.63;5007070;28;20402;-76
2022/10/04 12:18:58;;;;;;;51.50;33.17;;;;;;;20.52;100.00;100341.81;5008075;28;20033;-74
2022/10/04 12:21:40;;;;;;;51.92;33.67;;;;;;;20.65;100.00;100331.25;5003127;28;20034;-77
2022/10/04 12:24:32;;;;;;;56.67;32.65;;;;;;;20.76;100.00;100328.06;5003336;28;20069;-76
2022/10/04 12:27:37;;;;;;;58.30;33.45;;;;;;;20.88;100.00;100324.88;4984671;28;20475;-73